sensor_id;sensor_type;location;lat;lon;timestamp;pressure;altitude;pressure_sealevel;temperature;humidity
9774;BME280;4926;42.670;23.316;2023-05-09T00:00:59;94820.59;;;14.41;100.00
9774;BME280;4926;42.670;23.316;2023-05-09T00:03:33;94830.47;;;14.54;100.00
9774;BME280;4926;42.670;23.316;2023-05-09T00:05:59;94822.50;;;14.63;100.00
9774;BME280;4926;42.670;23.316;2023-05-09T00:08:27;94821.78;;;14.71;100.00
9774;BME280;4926;42.670;23.316;2023-05-09T00:10:53;94818.13;;;14.67;100.00
9774;BME280;4926;42.670;23.316;2023-05-09T00:13:20;94818.78;;;14.73;100.00
9774;BME280;4926;42.670;23.316;2023-05-09T00:15:47;94819.09;;;14.71;100.00
9774;BME280;4926;42.670;23.316;2023-05-09T00:18:14;94810.94;;;14.76;100.00
9774;BME280;4926;42.670;23.316;2023-05-09T00:20:43;94815.84;;;14.83;100.00
9774;BME280;4926;42.670;23.316;2023-05-09T00:23:12;94815.19;;;14.77;100.00
9774;BME280;4926;42.670;23.316;2023-05-09T00:25:39;94825.22;;;14.72;100.00
9774;BME280;4926;42.670;23.316;2023-05-09T00:28:06;94817.56;;;14.57;100.00
9774;BME280;4926;42.670;23.316;2023-05-09T00:30:32;94813.28;;;14.55;100.00
9774;BME280;4926;42.670;23.316;2023-05-09T00:32:59;94811.28;;;14.61;100.00
9774;BME280;4926;42.670;23.316;2023-05-09T00:35:26;94807.22;;;14.64;100.00
9774;BME280;4926;42.670;23.316;2023-05-09T00:37:54;94811.59;;;14.60;100.00
9774;BME280;4926;42.670;23.316;2023-05-09T00:40:21;94804.97;;;14.57;100.00
9774;BME280;4926;42.670;23.316;2023-05-09T00:42:48;94813.19;;;14.61;100.00
9774;BME280;4926;42.670;23.316;2023-05-09T00:45:17;94813.19;;;14.61;100.00
9774;BME280;4926;42.670;23.316;2023-05-09T00:47:43;94809.88;;;14.41;100.00
9774;BME280;4926;42.670;23.316;2023-05-09T00:50:13;94807.94;;;14.33;100.00
9774;BME280;4926;42.670;23.316;2023-05-09T00:52:40;94802.22;;;14.26;100.00
9774;BME280;4926;42.670;23.316;2023-05-09T00:55:11;94817.06;;;14.32;100.00
9774;BME280;4926;42.670;23.316;2023-05-09T00:57:43;94808.91;;;14.37;100.00
9774;BME280;4926;42.670;23.316;2023-05-09T01:00:19;94810.63;;;14.33;100.00
9774;BME280;4926;42.670;23.316;2023-05-09T01:02:52;94805.22;;;14.11;100.00
9774;BME280;4926;42.670;23.316;2023-05-09T01:05:20;94812.38;;;14.02;100.00
9774;BME280;4926;42.670;23.316;2023-05-09T01:07:54;94812.88;;;14.04;100.00
9774;BME280;4926;42.670;23.316;2023-05-09T01:10:34;94811.00;;;13.91;100.00
9774;BME280;4926;42.670;23.316;2023-05-09T01:13:08;94813.13;;;13.67;100.00
9774;BME280;4926;42.670;23.316;2023-05-09T01:15:42;94801.38;;;13.41;100.00
9774;BME280;4926;42.670;23.316;2023-05-09T01:18:15;94804.91;;;13.23;100.00
9774;BME280;4926;42.670;23.316;2023-05-09T01:20:45;94799.69;;;13.18;100.00
9774;BME280;4926;42.670;23.316;2023-05-09T01:23:40;94812.03;;;13.14;100.00
9774;BME280;4926;42.670;23.316;2023-05-09T01:26:13;94804.03;;;13.14;100.00
9774;BME280;4926;42.670;23.316;2023-05-09T01:28:59;94809.75;;;13.07;100.00
9774;BME280;4926;42.670;23.316;2023-05-09T01:31:33;94807.34;;;12.92;100.00
9774;BME280;4926;42.670;23.316;2023-05-09T01:34:04;94801.31;;;12.87;100.00
9774;BME280;4926;42.670;23.316;2023-05-09T01:36:36;94797.22;;;12.76;100.00
9774;BME280;4926;42.670;23.316;2023-05-09T01:39:03;94805.53;;;12.88;100.00
9774;BME280;4926;42.670;23.316;2023-05-09T01:41:34;94803.38;;;12.90;100.00
9774;BME280;4926;42.670;23.316;2023-05-09T01:44:07;94802.88;;;12.88;100.00
9774;BME280;4926;42.670;23.316;2023-05-09T01:46:37;94811.38;;;12.90;100.00
9774;BME280;4926;42.670;23.316;2023-05-09T01:49:06;94803.25;;;12.81;100.00
9774;BME280;4926;42.670;23.316;2023-05-09T01:51:34;94812.69;;;12.79;100.00
9774;BME280;4926;42.670;23.316;2023-05-09T01:54:03;94811.38;;;12.90;100.00
9774;BME280;4926;42.670;23.316;2023-05-09T01:56:31;94817.66;;;12.99;100.00
9774;BME280;4926;42.670;23.316;2023-05-09T01:58:59;94823.94;;;13.08;100.00
9774;BME280;4926;42.670;23.316;2023-05-09T02:01:29;94820.66;;;13.11;100.00
9774;BME280;4926;42.670;23.316;2023-05-09T02:03:58;94818.38;;;13.18;100.00
9774;BME280;4926;42.670;23.316;2023-05-09T02:06:25;94814.44;;;13.29;100.00
9774;BME280;4926;42.670;23.316;2023-05-09T02:08:55;94819.38;;;13.22;100.00
9774;BME280;4926;42.670;23.316;2023-05-09T02:11:22;94816.63;;;13.27;100.00
9774;BME280;4926;42.670;23.316;2023-05-09T02:13:49;94816.00;;;13.30;100.00
9774;BME280;4926;42.670;23.316;2023-05-09T02:16:16;94815.25;;;13.29;100.00
9774;BME280;4926;42.670;23.316;2023-05-09T02:18:42;94812.94;;;13.23;100.00
9774;BME280;4926;42.670;23.316;2023-05-09T02:21:11;94817.97;;;13.11;100.00
9774;BME280;4926;42.670;23.316;2023-05-09T02:23:40;94814.13;;;13.17;100.00
9774;BME280;4926;42.670;23.316;2023-05-09T02:26:09;94810.38;;;13.18;100.00
9774;BME280;4926;42.670;23.316;2023-05-09T02:28:37;94808.50;;;13.18;100.00
9774;BME280;4926;42.670;23.316;2023-05-09T02:31:05;94811.88;;;13.24;100.00
9774;BME280;4926;42.670;23.316;2023-05-09T02:33:35;94813.13;;;13.26;100.00
9774;BME280;4926;42.670;23.316;2023-05-09T02:36:04;94813.25;;;13.35;100.00
9774;BME280;4926;42.670;23.316;2023-05-09T02:38:33;94807.22;;;13.43;100.00
9774;BME280;4926;42.670;23.316;2023-05-09T02:40:59;94814.63;;;13.46;100.00
9774;BME280;4926;42.670;23.316;2023-05-09T02:43:31;94810.56;;;13.62;100.00
9774;BME280;4926;42.670;23.316;2023-05-09T02:45:58;94812.31;;;13.67;100.00
9774;BME280;4926;42.670;23.316;2023-05-09T02:48:25;94808.16;;;13.74;100.00
9774;BME280;4926;42.670;23.316;2023-05-09T02:50:52;94808.84;;;13.80;100.00
9774;BME280;4926;42.670;23.316;2023-05-09T02:53:19;94815.41;;;13.87;100.00
9774;BME280;4926;42.670;23.316;2023-05-09T02:55:50;94812.00;;;13.95;100.00
9774;BME280;4926;42.670;23.316;2023-05-09T02:58:18;94820.81;;;13.82;100.00
9774;BME280;4926;42.670;23.316;2023-05-09T03:00:45;94813.19;;;13.89;100.00
9774;BME280;4926;42.670;23.316;2023-05-09T03:03:12;94813.38;;;13.93;100.00
9774;BME280;4926;42.670;23.316;2023-05-09T03:05:38;94815.84;;;13.89;100.00
9774;BME280;4926;42.670;23.316;2023-05-09T03:08:08;94814.78;;;13.90;100.00
9774;BME280;4926;42.670;23.316;2023-05-09T03:10:34;94821.13;;;13.81;100.00
9774;BME280;4926;42.670;23.316;2023-05-09T03:13:02;94825.28;;;13.87;100.00
9774;BME280;4926;42.670;23.316;2023-05-09T03:15:29;94815.41;;;13.87;100.00
9774;BME280;4926;42.670;23.316;2023-05-09T03:17:56;94831.44;;;13.87;100.00
9774;BME280;4926;42.670;23.316;2023-05-09T03:20:24;94833.81;;;13.75;100.00
9774;BME280;4926;42.670;23.316;2023-05-09T03:22:51;94835.41;;;13.76;100.00
9774;BME280;4926;42.670;23.316;2023-05-09T03:25:18;94850.06;;;13.79;100.00
9774;BME280;4926;42.670;23.316;2023-05-09T03:27:46;94851.88;;;13.83;100.00
9774;BME280;4926;42.670;23.316;2023-05-09T03:30:14;94853.47;;;13.71;100.00
9774;BME280;4926;42.670;23.316;2023-05-09T03:32:41;94854.84;;;13.82;100.00
9774;BME280;4926;42.670;23.316;2023-05-09T03:35:08;94851.75;;;13.88;100.00
9774;BME280;4926;42.670;23.316;2023-05-09T03:37:35;94859.78;;;13.88;100.00
9774;BME280;4926;42.670;23.316;2023-05-09T03:40:04;94857.72;;;13.85;100.00
9774;BME280;4926;42.670;23.316;2023-05-09T03:42:31;94860.88;;;13.87;100.00
9774;BME280;4926;42.670;23.316;2023-05-09T03:45:01;94856.00;;;13.89;100.00
9774;BME280;4926;42.670;23.316;2023-05-09T03:47:34;94870.09;;;13.81;100.00
9774;BME280;4926;42.670;23.316;2023-05-09T03:50:00;94861.97;;;13.86;100.00
9774;BME280;4926;42.670;23.316;2023-05-09T03:52:28;94865.34;;;13.78;100.00
9774;BME280;4926;42.670;23.316;2023-05-09T03:54:55;94856.72;;;13.54;100.00
9774;BME280;4926;42.670;23.316;2023-05-09T03:57:24;94868.72;;;13.43;100.00
9774;BME280;4926;42.670;23.316;2023-05-09T03:59:51;94867.41;;;13.13;100.00
9774;BME280;4926;42.670;23.316;2023-05-09T04:02:21;94860.53;;;13.07;100.00
9774;BME280;4926;42.670;23.316;2023-05-09T04:04:49;94861.94;;;13.05;100.00
9774;BME280;4926;42.670;23.316;2023-05-09T04:07:17;94866.50;;;13.04;100.00
9774;BME280;4926;42.670;23.316;2023-05-09T04:09:45;94862.28;;;12.98;100.00
9774;BME280;4926;42.670;23.316;2023-05-09T04:12:13;94868.78;;;12.79;100.00
9774;BME280;4926;42.670;23.316;2023-05-09T04:14:42;94861.41;;;12.71;100.00
9774;BME280;4926;42.670;23.316;2023-05-09T04:17:12;94870.72;;;12.73;100.00
9774;BME280;4926;42.670;23.316;2023-05-09T04:19:39;94869.13;;;12.72;100.00
9774;BME280;4926;42.670;23.316;2023-05-09T04:22:07;94865.19;;;12.70;100.00
9774;BME280;4926;42.670;23.316;2023-05-09T04:24:36;94866.75;;;12.71;100.00
9774;BME280;4926;42.670;23.316;2023-05-09T04:27:03;94864.06;;;12.71;100.00
9774;BME280;4926;42.670;23.316;2023-05-09T04:29:30;94865.59;;;12.77;100.00
9774;BME280;4926;42.670;23.316;2023-05-09T04:31:59;94857.16;;;12.70;100.00
9774;BME280;4926;42.670;23.316;2023-05-09T04:34:26;94869.38;;;12.89;100.00
9774;BME280;4926;42.670;23.316;2023-05-09T04:36:54;94867.00;;;13.06;100.00
9774;BME280;4926;42.670;23.316;2023-05-09T04:39:23;94866.81;;;13.30;100.00
9774;BME280;4926;42.670;23.316;2023-05-09T04:41:50;94871.28;;;13.48;100.00
9774;BME280;4926;42.670;23.316;2023-05-09T04:44:19;94871.28;;;13.62;100.00
9774;BME280;4926;42.670;23.316;2023-05-09T04:46:47;94875.66;;;13.71;100.00
9774;BME280;4926;42.670;23.316;2023-05-09T04:49:14;94875.34;;;13.86;100.00
9774;BME280;4926;42.670;23.316;2023-05-09T04:51:41;94873.63;;;14.04;100.00
9774;BME280;4926;42.670;23.316;2023-05-09T04:54:08;94872.56;;;13.91;100.00
9774;BME280;4926;42.670;23.316;2023-05-09T04:56:36;94877.63;;;13.79;100.00
9774;BME280;4926;42.670;23.316;2023-05-09T04:59:02;94874.94;;;13.79;100.00
9774;BME280;4926;42.670;23.316;2023-05-09T05:01:29;94877.03;;;13.82;100.00
9774;BME280;4926;42.670;23.316;2023-05-09T05:03:56;94875.53;;;13.90;100.00
9774;BME280;4926;42.670;23.316;2023-05-09T05:06:26;94879.00;;;14.04;100.00
9774;BME280;4926;42.670;23.316;2023-05-09T05:08:52;94879.38;;;14.11;100.00
9774;BME280;4926;42.670;23.316;2023-05-09T05:11:19;94864.00;;;14.16;100.00
9774;BME280;4926;42.670;23.316;2023-05-09T05:13:47;94880.13;;;14.38;100.00
9774;BME280;4926;42.670;23.316;2023-05-09T05:16:14;94876.00;;;14.32;100.00
9774;BME280;4926;42.670;23.316;2023-05-09T05:18:40;94874.28;;;14.23;100.00
9774;BME280;4926;42.670;23.316;2023-05-09T05:21:12;94874.41;;;14.31;100.00
9774;BME280;4926;42.670;23.316;2023-05-09T05:23:40;94874.41;;;14.31;100.00
9774;BME280;4926;42.670;23.316;2023-05-09T05:26:09;94883.22;;;14.32;100.00
9774;BME280;4926;42.670;23.316;2023-05-09T05:28:38;94873.81;;;14.34;100.00
9774;BME280;4926;42.670;23.316;2023-05-09T05:31:06;94877.34;;;14.43;100.00
9774;BME280;4926;42.670;23.316;2023-05-09T05:33:36;94874.06;;;14.46;99.90
9774;BME280;4926;42.670;23.316;2023-05-09T05:36:06;94884.09;;;14.41;100.00
9774;BME280;4926;42.670;23.316;2023-05-09T05:38:33;94880.56;;;14.54;100.00
9774;BME280;4926;42.670;23.316;2023-05-09T05:41:01;94886.72;;;14.54;99.69
9774;BME280;4926;42.670;23.316;2023-05-09T05:43:27;94885.25;;;14.48;99.28
9774;BME280;4926;42.670;23.316;2023-05-09T05:45:57;94889.78;;;14.62;98.88
9774;BME280;4926;42.670;23.316;2023-05-09T05:48:28;94890.88;;;14.11;100.00
9774;BME280;4926;42.670;23.316;2023-05-09T05:50:56;94879.97;;;13.94;100.00
9774;BME280;4926;42.670;23.316;2023-05-09T05:53:23;94882.56;;;13.99;100.00
9774;BME280;4926;42.670;23.316;2023-05-09T05:55:50;94881.53;;;14.22;100.00
9774;BME280;4926;42.670;23.316;2023-05-09T05:58:17;94887.09;;;14.39;100.00
9774;BME280;4926;42.670;23.316;2023-05-09T06:00:43;94891.59;;;14.52;100.00
9774;BME280;4926;42.670;23.316;2023-05-09T06:03:10;94890.16;;;14.69;100.00
9774;BME280;4926;42.670;23.316;2023-05-09T06:05:51;94879.25;;;14.65;100.00
9774;BME280;4926;42.670;23.316;2023-05-09T06:08:18;94882.31;;;14.72;100.00
9774;BME280;4926;42.670;23.316;2023-05-09T06:10:45;94884.97;;;14.94;100.00
9774;BME280;4926;42.670;23.316;2023-05-09T06:13:14;94886.84;;;15.16;99.24
9774;BME280;4926;42.670;23.316;2023-05-09T06:15:40;94878.19;;;15.19;96.19
9774;BME280;4926;42.670;23.316;2023-05-09T06:18:07;94893.38;;;15.01;96.03
9774;BME280;4926;42.670;23.316;2023-05-09T06:20:34;94884.25;;;14.58;99.33
9774;BME280;4926;42.670;23.316;2023-05-09T06:23:02;94883.25;;;14.54;99.38
9774;BME280;4926;42.670;23.316;2023-05-09T06:25:29;94878.94;;;14.44;100.00
9774;BME280;4926;42.670;23.316;2023-05-09T06:27:55;94892.06;;;14.32;100.00
9774;BME280;4926;42.670;23.316;2023-05-09T06:30:22;94890.28;;;14.28;100.00
9774;BME280;4926;42.670;23.316;2023-05-09T06:32:49;94890.56;;;14.26;100.00
9774;BME280;4926;42.670;23.316;2023-05-09T06:35:16;94894.44;;;14.07;100.00
9774;BME280;4926;42.670;23.316;2023-05-09T06:37:42;94886.03;;;13.86;100.00
9774;BME280;4926;42.670;23.316;2023-05-09T06:40:15;94882.19;;;13.52;100.00
9774;BME280;4926;42.670;23.316;2023-05-09T06:42:44;94880.22;;;13.57;100.00
9774;BME280;4926;42.670;23.316;2023-05-09T06:45:13;94894.34;;;13.98;100.00
9774;BME280;4926;42.670;23.316;2023-05-09T06:47:39;94885.81;;;14.23;100.00
9774;BME280;4926;42.670;23.316;2023-05-09T06:50:07;94890.16;;;14.46;100.00
9774;BME280;4926;42.670;23.316;2023-05-09T06:52:39;94890.97;;;14.55;97.57
9774;BME280;4926;42.670;23.316;2023-05-09T06:55:10;94889.66;;;14.44;92.29
9774;BME280;4926;42.670;23.316;2023-05-09T06:57:38;94886.41;;;14.34;94.32
9774;BME280;4926;42.670;23.316;2023-05-09T07:00:12;94897.81;;;14.39;92.67
9774;BME280;4926;42.670;23.316;2023-05-09T07:02:39;94888.03;;;14.57;92.32
9774;BME280;4926;42.670;23.316;2023-05-09T07:05:09;94886.63;;;14.60;88.99
9774;BME280;4926;42.670;23.316;2023-05-09T07:07:36;94891.47;;;14.57;90.57
9774;BME280;4926;42.670;23.316;2023-05-09T07:10:03;94878.06;;;14.71;90.42
9774;BME280;4926;42.670;23.316;2023-05-09T07:12:32;94885.16;;;14.76;90.47
9774;BME280;4926;42.670;23.316;2023-05-09T07:15:02;94872.97;;;14.92;88.81
9774;BME280;4926;42.670;23.316;2023-05-09T07:17:29;94883.41;;;14.71;87.67
9774;BME280;4926;42.670;23.316;2023-05-09T07:19:55;94881.00;;;14.70;87.74
9774;BME280;4926;42.670;23.316;2023-05-09T07:22:22;94884.91;;;14.86;88.77
9774;BME280;4926;42.670;23.316;2023-05-09T07:24:49;94885.50;;;15.05;87.70
9774;BME280;4926;42.670;23.316;2023-05-09T07:27:18;94874.25;;;15.16;86.87
9774;BME280;4926;42.670;23.316;2023-05-09T07:29:46;94875.38;;;15.24;86.21
9774;BME280;4926;42.670;23.316;2023-05-09T07:32:27;94882.69;;;15.32;86.23
9774;BME280;4926;42.670;23.316;2023-05-09T07:34:54;94873.03;;;15.31;84.63
9774;BME280;4926;42.670;23.316;2023-05-09T07:37:20;94885.88;;;15.12;85.93
9774;BME280;4926;42.670;23.316;2023-05-09T07:39:47;94894.63;;;14.95;85.18
9774;BME280;4926;42.670;23.316;2023-05-09T07:42:14;94890.38;;;15.03;85.43
9774;BME280;4926;42.670;23.316;2023-05-09T07:44:43;94892.97;;;15.08;85.03
9774;BME280;4926;42.670;23.316;2023-05-09T07:47:11;94883.38;;;15.15;84.81
9774;BME280;4926;42.670;23.316;2023-05-09T07:49:38;94890.00;;;15.40;84.38
9774;BME280;4926;42.670;23.316;2023-05-09T07:52:13;94888.53;;;15.34;84.95
9774;BME280;4926;42.670;23.316;2023-05-09T07:54:41;94887.97;;;15.45;85.13
9774;BME280;4926;42.670;23.316;2023-05-09T07:57:08;94884.63;;;15.40;81.65
9774;BME280;4926;42.670;23.316;2023-05-09T07:59:37;94878.31;;;15.36;81.72
9774;BME280;4926;42.670;23.316;2023-05-09T08:02:04;94871.78;;;15.28;82.42
9774;BME280;4926;42.670;23.316;2023-05-09T08:04:34;94872.31;;;15.39;82.08
9774;BME280;4926;42.670;23.316;2023-05-09T08:07:03;94873.53;;;15.33;83.25
9774;BME280;4926;42.670;23.316;2023-05-09T08:09:43;94877.31;;;15.32;83.23
9774;BME280;4926;42.670;23.316;2023-05-09T08:12:10;94881.72;;;15.28;84.47
9774;BME280;4926;42.670;23.316;2023-05-09T08:14:36;94870.31;;;15.44;85.04
9774;BME280;4926;42.670;23.316;2023-05-09T08:17:03;94877.31;;;15.62;83.23
9774;BME280;4926;42.670;23.316;2023-05-09T08:19:30;94881.78;;;15.67;82.37
9774;BME280;4926;42.670;23.316;2023-05-09T08:21:59;94883.91;;;15.48;82.42
9774;BME280;4926;42.670;23.316;2023-05-09T08:24:26;94887.16;;;15.76;82.56
9774;BME280;4926;42.670;23.316;2023-05-09T08:26:54;94873.31;;;15.91;80.47
9774;BME280;4926;42.670;23.316;2023-05-09T08:29:20;94876.00;;;15.99;78.86
9774;BME280;4926;42.670;23.316;2023-05-09T08:31:47;94869.88;;;16.07;77.82
9774;BME280;4926;42.670;23.316;2023-05-09T08:34:14;94871.31;;;16.13;78.81
9774;BME280;4926;42.670;23.316;2023-05-09T08:36:40;94869.09;;;16.15;78.64
9774;BME280;4926;42.670;23.316;2023-05-09T08:39:11;94879.53;;;16.17;78.89
9774;BME280;4926;42.670;23.316;2023-05-09T08:41:40;94875.75;;;16.18;78.32
9774;BME280;4926;42.670;23.316;2023-05-09T08:44:11;94873.22;;;16.21;79.53
9774;BME280;4926;42.670;23.316;2023-05-09T08:46:42;94874.63;;;16.10;78.63
9774;BME280;4926;42.670;23.316;2023-05-09T08:49:09;94871.91;;;15.93;79.14
9774;BME280;4926;42.670;23.316;2023-05-09T08:51:36;94867.03;;;16.04;79.08
9774;BME280;4926;42.670;23.316;2023-05-09T08:54:08;94867.25;;;15.77;79.25
9774;BME280;4926;42.670;23.316;2023-05-09T08:56:35;94875.75;;;15.61;80.11
9774;BME280;4926;42.670;23.316;2023-05-09T08:59:06;94866.28;;;15.64;80.10
9774;BME280;4926;42.670;23.316;2023-05-09T09:01:34;94871.63;;;15.64;80.53
9774;BME280;4926;42.670;23.316;2023-05-09T09:04:02;94871.00;;;15.58;79.98
9774;BME280;4926;42.670;23.316;2023-05-09T09:06:32;94870.69;;;15.60;79.95
9774;BME280;4926;42.670;23.316;2023-05-09T09:09:04;94877.66;;;15.70;80.11
9774;BME280;4926;42.670;23.316;2023-05-09T09:11:33;94877.75;;;15.87;80.50
9774;BME280;4926;42.670;23.316;2023-05-09T09:14:01;94874.09;;;15.91;80.22
9774;BME280;4926;42.670;23.316;2023-05-09T09:16:35;94867.34;;;15.94;79.13
9774;BME280;4926;42.670;23.316;2023-05-09T09:19:04;94862.44;;;16.04;78.57
9774;BME280;4926;42.670;23.316;2023-05-09T09:21:36;94873.38;;;16.16;78.34
9774;BME280;4926;42.670;23.316;2023-05-09T09:24:06;94871.09;;;15.93;77.92
9774;BME280;4926;42.670;23.316;2023-05-09T09:26:33;94878.81;;;15.86;78.84
9774;BME280;4926;42.670;23.316;2023-05-09T09:28:59;94875.69;;;15.92;79.50
9774;BME280;4926;42.670;23.316;2023-05-09T09:31:30;94880.84;;;15.80;79.90
9774;BME280;4926;42.670;23.316;2023-05-09T09:34:05;94886.00;;;15.07;82.96
9774;BME280;4926;42.670;23.316;2023-05-09T09:36:31;94899.38;;;14.76;85.39
9774;BME280;4926;42.670;23.316;2023-05-09T09:39:00;94900.75;;;14.51;87.35
9774;BME280;4926;42.670;23.316;2023-05-09T09:41:30;94896.50;;;14.37;90.00
9774;BME280;4926;42.670;23.316;2023-05-09T09:43:57;94901.69;;;14.69;89.75
9774;BME280;4926;42.670;23.316;2023-05-09T09:46:24;94899.03;;;14.55;90.69
9774;BME280;4926;42.670;23.316;2023-05-09T09:48:51;94891.72;;;14.47;92.95
9774;BME280;4926;42.670;23.316;2023-05-09T09:51:25;94886.72;;;14.32;93.20
9774;BME280;4926;42.670;23.316;2023-05-09T09:53:53;94896.50;;;14.37;92.10
9774;BME280;4926;42.670;23.316;2023-05-09T09:56:19;94894.06;;;14.27;91.78
9774;BME280;4926;42.670;23.316;2023-05-09T09:58:46;94898.63;;;14.13;92.31
9774;BME280;4926;42.670;23.316;2023-05-09T10:01:13;94895.03;;;14.17;94.04
9774;BME280;4926;42.670;23.316;2023-05-09T10:03:41;94887.38;;;14.24;92.43
9774;BME280;4926;42.670;23.316;2023-05-09T10:06:12;94884.28;;;14.44;91.67
9774;BME280;4926;42.670;23.316;2023-05-09T10:08:43;94879.00;;;14.53;90.46
9774;BME280;4926;42.670;23.316;2023-05-09T10:11:14;94872.03;;;14.52;90.90
9774;BME280;4926;42.670;23.316;2023-05-09T10:13:42;94863.97;;;14.88;88.98
9774;BME280;4926;42.670;23.316;2023-05-09T10:16:10;94869.06;;;15.20;87.62
9774;BME280;4926;42.670;23.316;2023-05-09T10:18:38;94864.63;;;15.24;85.83
9774;BME280;4926;42.670;23.316;2023-05-09T10:21:07;94860.06;;;14.94;88.48
9774;BME280;4926;42.670;23.316;2023-05-09T10:23:37;94872.13;;;14.83;88.65
9774;BME280;4926;42.670;23.316;2023-05-09T10:26:15;94873.94;;;14.74;90.20
9774;BME280;4926;42.670;23.316;2023-05-09T10:28:44;94869.81;;;14.90;91.22
9774;BME280;4926;42.670;23.316;2023-05-09T10:31:15;94863.19;;;15.18;90.13
9774;BME280;4926;42.670;23.316;2023-05-09T10:33:47;94860.47;;;15.09;87.68
9774;BME280;4926;42.670;23.316;2023-05-09T10:36:16;94860.44;;;15.01;89.30
9774;BME280;4926;42.670;23.316;2023-05-09T10:38:43;94863.69;;;14.98;89.38
9774;BME280;4926;42.670;23.316;2023-05-09T10:41:11;94876.88;;;14.64;90.41
9774;BME280;4926;42.670;23.316;2023-05-09T10:43:38;94864.00;;;14.30;93.80
9774;BME280;4926;42.670;23.316;2023-05-09T10:46:06;94865.19;;;14.24;94.97
9774;BME280;4926;42.670;23.316;2023-05-09T10:48:32;94868.78;;;14.55;93.54
9774;BME280;4926;42.670;23.316;2023-05-09T10:51:00;94862.97;;;14.39;94.76
9774;BME280;4926;42.670;23.316;2023-05-09T10:53:39;94867.47;;;14.30;94.36
9774;BME280;4926;42.670;23.316;2023-05-09T10:56:22;94869.84;;;14.32;94.75
9774;BME280;4926;42.670;23.316;2023-05-09T10:58:50;94863.59;;;14.59;94.90
9774;BME280;4926;42.670;23.316;2023-05-09T11:01:29;94862.63;;;14.77;92.71
9774;BME280;4926;42.670;23.316;2023-05-09T11:03:59;94848.66;;;15.10;88.74
9774;BME280;4926;42.670;23.316;2023-05-09T11:06:46;94862.72;;;15.46;85.54
9774;BME280;4926;42.670;23.316;2023-05-09T11:09:23;94864.91;;;15.14;87.11
9774;BME280;4926;42.670;23.316;2023-05-09T11:11:53;94873.09;;;15.09;87.85
9774;BME280;4926;42.670;23.316;2023-05-09T11:14:30;94856.66;;;15.32;86.73
9774;BME280;4926;42.670;23.316;2023-05-09T11:16:58;94860.59;;;14.82;88.32
9774;BME280;4926;42.670;23.316;2023-05-09T11:22:20;94862.00;;;15.02;86.69
9774;BME280;4926;42.670;23.316;2023-05-09T11:24:48;94872.38;;;14.73;88.41
9774;BME280;4926;42.670;23.316;2023-05-09T11:27:18;94861.66;;;14.95;87.72
9774;BME280;4926;42.670;23.316;2023-05-09T11:29:49;94858.34;;;14.98;87.17
9774;BME280;4926;42.670;23.316;2023-05-09T11:32:20;94862.44;;;15.26;85.99
9774;BME280;4926;42.670;23.316;2023-05-09T11:34:50;94866.56;;;15.54;86.05
9774;BME280;4926;42.670;23.316;2023-05-09T11:37:17;94861.31;;;15.49;84.35
9774;BME280;4926;42.670;23.316;2023-05-09T11:39:57;94863.72;;;15.28;85.36
9774;BME280;4926;42.670;23.316;2023-05-09T11:42:26;94859.59;;;15.44;85.82
9774;BME280;4926;42.670;23.316;2023-05-09T11:44:53;94864.56;;;15.68;83.73
9774;BME280;4926;42.670;23.316;2023-05-09T11:47:23;94872.41;;;15.56;83.43
9774;BME280;4926;42.670;23.316;2023-05-09T11:50:00;94862.91;;;15.50;85.38
9774;BME280;4926;42.670;23.316;2023-05-09T11:52:30;94859.22;;;15.85;83.19
9774;BME280;4926;42.670;23.316;2023-05-09T11:54:57;94855.25;;;15.35;83.58
9774;BME280;4926;42.670;23.316;2023-05-09T11:57:26;94870.91;;;14.67;88.06
9774;BME280;4926;42.670;23.316;2023-05-09T11:59:53;94868.47;;;14.79;89.31
9774;BME280;4926;42.670;23.316;2023-05-09T12:02:20;94854.38;;;14.73;89.15
9774;BME280;4926;42.670;23.316;2023-05-09T12:04:48;94863.06;;;15.23;87.35
9774;BME280;4926;42.670;23.316;2023-05-09T12:07:15;94861.38;;;15.27;85.11
9774;BME280;4926;42.670;23.316;2023-05-09T12:09:43;94872.78;;;14.66;87.11
9774;BME280;4926;42.670;23.316;2023-05-09T12:12:11;94873.31;;;14.32;89.74
9774;BME280;4926;42.670;23.316;2023-05-09T12:14:41;94872.53;;;14.32;92.76
9774;BME280;4926;42.670;23.316;2023-05-09T12:17:07;94870.97;;;14.53;91.62
9774;BME280;4926;42.670;23.316;2023-05-09T12:19:34;94864.56;;;14.63;90.29
9774;BME280;4926;42.670;23.316;2023-05-09T12:22:02;94865.94;;;14.24;93.55
9774;BME280;4926;42.670;23.316;2023-05-09T12:24:34;94869.53;;;14.33;91.74
9774;BME280;4926;42.670;23.316;2023-05-09T12:27:02;94867.28;;;14.49;91.05
9774;BME280;4926;42.670;23.316;2023-05-09T12:29:30;94872.06;;;14.03;93.34
9774;BME280;4926;42.670;23.316;2023-05-09T12:31:58;94874.06;;;13.57;96.68
9774;BME280;4926;42.670;23.316;2023-05-09T12:34:25;94853.03;;;13.23;100.00
9774;BME280;4926;42.670;23.316;2023-05-09T12:36:55;94857.56;;;13.09;100.00
9774;BME280;4926;42.670;23.316;2023-05-09T12:39:24;94860.69;;;12.97;100.00
9774;BME280;4926;42.670;23.316;2023-05-09T12:41:51;94848.69;;;12.95;100.00
9774;BME280;4926;42.670;23.316;2023-05-09T12:44:20;94849.91;;;12.89;100.00
9774;BME280;4926;42.670;23.316;2023-05-09T12:46:58;94851.72;;;13.07;100.00
9774;BME280;4926;42.670;23.316;2023-05-09T12:49:26;94857.16;;;13.02;100.00
9774;BME280;4926;42.670;23.316;2023-05-09T12:51:58;94846.63;;;12.92;100.00
9774;BME280;4926;42.670;23.316;2023-05-09T12:54:26;94840.75;;;13.08;100.00
9774;BME280;4926;42.670;23.316;2023-05-09T12:56:55;94850.47;;;13.31;100.00
9774;BME280;4926;42.670;23.316;2023-05-09T12:59:23;94836.69;;;13.11;100.00
9774;BME280;4926;42.670;23.316;2023-05-09T13:01:52;94835.31;;;12.81;100.00
9774;BME280;4926;42.670;23.316;2023-05-09T13:04:21;94835.13;;;13.10;100.00
9774;BME280;4926;42.670;23.316;2023-05-09T13:06:49;94829.03;;;12.91;100.00
9774;BME280;4926;42.670;23.316;2023-05-09T13:09:16;94832.84;;;13.17;100.00
9774;BME280;4926;42.670;23.316;2023-05-09T13:11:44;94835.69;;;13.07;100.00
9774;BME280;4926;42.670;23.316;2023-05-09T13:14:10;94833.06;;;13.34;100.00
9774;BME280;4926;42.670;23.316;2023-05-09T13:16:40;94837.28;;;13.76;100.00